Time;durP1;ratioP1;P1;durP2;ratioP2;P2;SDS_P1;SDS_P2;PMS_P1;PMS_P2;Temp;Humidity;BMP_temperature;BMP_pressure;BME280_temperature;BME280_humidity;BME280_pressure;Samples;Min_cycle;Max_cycle;Signal;HPM_P1;HPM_P2
2023/05/16 00:01:00;;;;;;;7.32;1.13;;;;;;;;;;5263725;28;20775;-68
2023/05/16 00:03:31;;;;;;;8.35;1.13;;;;;;;;;;5263258;28;20430;-68
2023/05/16 00:06:02;;;;;;;10.85;1.23;;;;;;;;;;5263853;28;20075;-68
2023/05/16 00:08:34;;;;;;;10.13;1.77;;;;;;;;;;5264008;28;20013;-68
2023/05/16 00:11:05;;;;;;;11.60;1.02;;;;;;;;;;5262928;28;20029;-68
2023/05/16 00:13:37;;;;;;;12.93;1.30;;;;;;;;;;5263840;28;20418;-68
2023/05/16 00:16:08;;;;;;;12.55;1.10;;;;;;;;;;5263897;28;20075;-68
2023/05/16 00:18:40;;;;;;;8.02;1.25;;;;;;;;;;5262463;28;20415;-68
2023/05/16 00:21:11;;;;;;;12.85;1.38;;;;;;;;;;5263804;28;20055;-68
2023/05/16 00:23:43;;;;;;;11.00;0.80;;;;;;;;;;5262536;28;20014;-68
2023/05/16 00:26:14;;;;;;;8.82;0.98;;;;;;;;;;5263860;28;20009;-68
2023/05/16 00:28:45;;;;;;;9.68;0.90;;;;;;;;;;5263084;28;20013;-68
2023/05/16 00:31:16;;;;;;;13.60;1.52;;;;;;;;;;5262979;28;20096;-68
2023/05/16 00:33:48;;;;;;;10.73;0.90;;;;;;;;;;5263364;28;20021;-68
2023/05/16 00:36:20;;;;;;;12.85;1.38;;;;;;;;;;5263538;28;20021;-69
2023/05/16 00:38:51;;;;;;;11.23;1.45;;;;;;;;;;5262192;28;20041;-68
2023/05/16 00:41:24;;;;;;;14.07;1.70;;;;;;;;;;5262867;28;20064;-69
2023/05/16 00:43:55;;;;;;;9.52;0.93;;;;;;;;;;5263223;28;20016;-68
2023/05/16 00:46:26;;;;;;;8.27;1.17;;;;;;;;;;5262986;28;20108;-68
2023/05/16 00:48:57;;;;;;;10.27;0.90;;;;;;;;;;5262918;28;20025;-69
2023/05/16 00:51:28;;;;;;;10.23;1.42;;;;;;;;;;5263530;28;20096;-68
2023/05/16 00:54:00;;;;;;;9.82;0.70;;;;;;;;;;5261869;28;20128;-69
2023/05/16 00:56:32;;;;;;;12.55;1.40;;;;;;;;;;5263286;28;20044;-69
2023/05/16 00:59:03;;;;;;;9.77;0.90;;;;;;;;;;5262059;28;20169;-68
2023/05/16 01:01:35;;;;;;;8.65;0.95;;;;;;;;;;5262951;28;20033;-69
2023/05/16 01:04:06;;;;;;;12.65;1.00;;;;;;;;;;5262925;28;20017;-69
2023/05/16 01:06:37;;;;;;;9.27;0.93;;;;;;;;;;5261815;28;20048;-68
2023/05/16 01:09:09;;;;;;;8.32;1.23;;;;;;;;;;5263138;28;20056;-69
2023/05/16 01:11:47;;;;;;;9.00;1.23;;;;;;;;;;5262435;28;20009;-69
2023/05/16 01:14:18;;;;;;;10.00;1.45;;;;;;;;;;5262199;28;20032;-69
2023/05/16 01:17:02;;;;;;;9.23;1.13;;;;;;;;;;5262300;28;20754;-69
2023/05/16 01:19:45;;;;;;;11.27;0.90;;;;;;;;;;5262328;28;20263;-68
2023/05/16 01:22:16;;;;;;;5.13;0.60;;;;;;;;;;5262141;28;20070;-68
2023/05/16 01:25:06;;;;;;;8.18;0.90;;;;;;;;;;5262116;28;20021;-68
2023/05/16 01:27:37;;;;;;;9.93;0.80;;;;;;;;;;5261472;28;20025;-69
2023/05/16 01:30:16;;;;;;;8.43;0.80;;;;;;;;;;5262577;28;20029;-68
2023/05/16 01:32:47;;;;;;;11.18;0.70;;;;;;;;;;5261888;28;20013;-68
2023/05/16 01:35:18;;;;;;;8.80;0.98;;;;;;;;;;5261714;28;20446;-69
2023/05/16 01:38:11;;;;;;;11.35;1.88;;;;;;;;;;5261588;28;20049;-69
2023/05/16 01:40:47;;;;;;;6.03;0.80;;;;;;;;;;5261497;28;20032;-68
2023/05/16 01:43:24;;;;;;;9.52;0.80;;;;;;;;;;5261598;28;20430;-69
2023/05/16 01:46:01;;;;;;;8.32;1.08;;;;;;;;;;5261655;28;20032;-69
2023/05/16 01:48:42;;;;;;;8.98;0.70;;;;;;;;;;5261188;28;20020;-69
2023/05/16 01:51:13;;;;;;;9.90;0.77;;;;;;;;;;5262117;28;20094;-69
2023/05/16 01:53:44;;;;;;;9.32;1.20;;;;;;;;;;5260793;28;20423;-69
2023/05/16 01:56:15;;;;;;;9.85;0.93;;;;;;;;;;5261242;28;20024;-68
2023/05/16 01:58:48;;;;;;;9.30;0.82;;;;;;;;;;5261389;28;20451;-68
2023/05/16 02:01:20;;;;;;;7.18;0.60;;;;;;;;;;5262061;28;20036;-68
2023/05/16 02:03:51;;;;;;;7.88;1.00;;;;;;;;;;5260630;28;20017;-68
2023/05/16 02:06:22;;;;;;;3.50;0.50;;;;;;;;;;5261866;28;20031;-68
2023/05/16 02:08:53;;;;;;;6.22;0.70;;;;;;;;;;5261152;28;20406;-68
2023/05/16 02:11:25;;;;;;;6.80;0.70;;;;;;;;;;5261111;28;20172;-68
2023/05/16 02:13:56;;;;;;;8.38;0.70;;;;;;;;;;5261411;28;20024;-68
2023/05/16 02:16:29;;;;;;;5.72;0.50;;;;;;;;;;5260958;28;20023;-68
2023/05/16 02:19:00;;;;;;;8.73;0.65;;;;;;;;;;5261435;28;20466;-68
2023/05/16 02:21:31;;;;;;;6.05;0.75;;;;;;;;;;5261157;28;20120;-69
2023/05/16 02:24:03;;;;;;;9.25;0.88;;;;;;;;;;5260443;28;20095;-70
2023/05/16 02:26:35;;;;;;;8.80;1.08;;;;;;;;;;5261159;28;20017;-70
2023/05/16 02:29:06;;;;;;;8.10;0.80;;;;;;;;;;5261369;28;20024;-70
2023/05/16 02:31:37;;;;;;;8.05;0.70;;;;;;;;;;5260234;28;20071;-70
2023/05/16 02:34:08;;;;;;;11.23;0.98;;;;;;;;;;5261422;28;20091;-69
2023/05/16 02:36:39;;;;;;;7.74;0.72;;;;;;;;;;5261003;28;20044;-69
2023/05/16 02:39:10;;;;;;;8.43;0.88;;;;;;;;;;5260632;28;20077;-70
2023/05/16 02:41:42;;;;;;;7.18;0.80;;;;;;;;;;5260629;28;20037;-70
2023/05/16 02:44:13;;;;;;;6.72;0.63;;;;;;;;;;5260982;28;20053;-70
2023/05/16 02:46:44;;;;;;;11.32;0.88;;;;;;;;;;5260717;28;20032;-69
2023/05/16 02:49:15;;;;;;;5.95;0.60;;;;;;;;;;5261362;28;20013;-69
2023/05/16 02:51:47;;;;;;;9.95;1.23;;;;;;;;;;5259917;28;20021;-69
2023/05/16 02:54:18;;;;;;;10.50;1.08;;;;;;;;;;5261234;28;20070;-69
2023/05/16 02:56:49;;;;;;;6.60;0.70;;;;;;;;;;5260510;28;20025;-69
2023/05/16 02:59:20;;;;;;;5.12;0.70;;;;;;;;;;5260224;28;20048;-69
2023/05/16 03:01:52;;;;;;;7.43;0.70;;;;;;;;;;5260652;28;20109;-69
2023/05/16 03:04:23;;;;;;;10.68;0.82;;;;;;;;;;5261638;28;20021;-70
2023/05/16 03:06:54;;;;;;;6.57;0.60;;;;;;;;;;5264068;28;20057;-69
2023/05/16 03:09:25;;;;;;;6.85;1.10;;;;;;;;;;5265363;28;20066;-69
2023/05/16 03:11:58;;;;;;;5.62;0.50;;;;;;;;;;5264852;28;20029;-70
2023/05/16 03:14:29;;;;;;;8.25;1.15;;;;;;;;;;5264462;28;20419;-70
2023/05/16 03:17:00;;;;;;;10.13;0.90;;;;;;;;;;5265056;28;20025;-69
2023/05/16 03:19:32;;;;;;;5.50;0.80;;;;;;;;;;5264062;28;20102;-70
2023/05/16 03:22:03;;;;;;;5.78;0.55;;;;;;;;;;5264778;28;20519;-69
2023/05/16 03:24:34;;;;;;;7.93;0.95;;;;;;;;;;5265085;28;20100;-69
2023/05/16 03:27:05;;;;;;;10.20;1.00;;;;;;;;;;5264053;28;20028;-69
2023/05/16 03:29:36;;;;;;;7.43;0.63;;;;;;;;;;5264800;28;20021;-69
2023/05/16 03:32:09;;;;;;;7.47;0.60;;;;;;;;;;5264644;28;20071;-69
2023/05/16 03:34:40;;;;;;;10.02;1.15;;;;;;;;;;5263704;28;20028;-70
2023/05/16 03:37:13;;;;;;;8.68;1.25;;;;;;;;;;5264860;28;20025;-69
2023/05/16 03:39:44;;;;;;;8.93;1.00;;;;;;;;;;5264046;28;20017;-69
2023/05/16 03:42:17;;;;;;;5.45;0.90;;;;;;;;;;5263872;28;20071;-70
2023/05/16 03:44:48;;;;;;;8.88;1.92;;;;;;;;;;5263857;28;20291;-70
2023/05/16 03:47:19;;;;;;;7.25;0.65;;;;;;;;;;5264640;28;20045;-70
2023/05/16 03:49:51;;;;;;;4.80;0.60;;;;;;;;;;5263354;28;20072;-70
2023/05/16 03:52:22;;;;;;;10.65;1.30;;;;;;;;;;5264433;28;20021;-70
2023/05/16 03:54:53;;;;;;;8.80;0.75;;;;;;;;;;5263208;28;20544;-70
2023/05/16 03:57:25;;;;;;;6.03;0.85;;;;;;;;;;5264191;28;20032;-70
2023/05/16 03:59:56;;;;;;;7.82;0.75;;;;;;;;;;5263653;28;20490;-69
2023/05/16 04:02:27;;;;;;;6.72;0.85;;;;;;;;;;5263836;28;20021;-69
2023/05/16 04:04:58;;;;;;;11.30;0.90;;;;;;;;;;5263781;28;20128;-70
2023/05/16 04:07:29;;;;;;;8.13;1.40;;;;;;;;;;5263956;28;20017;-70
2023/05/16 04:10:01;;;;;;;7.38;0.90;;;;;;;;;;5263050;28;20092;-69
2023/05/16 04:12:32;;;;;;;8.75;1.40;;;;;;;;;;5263965;28;20071;-69
2023/05/16 04:15:05;;;;;;;12.68;1.50;;;;;;;;;;5264067;28;20041;-69
2023/05/16 04:17:36;;;;;;;6.40;0.70;;;;;;;;;;5262350;28;20032;-70
2023/05/16 04:20:08;;;;;;;8.00;0.40;;;;;;;;;;5263478;28;20025;-69
2023/05/16 04:22:39;;;;;;;6.53;0.77;;;;;;;;;;5263591;28;20356;-70
2023/05/16 04:25:11;;;;;;;9.30;1.48;;;;;;;;;;5263425;28;20025;-69
2023/05/16 04:27:42;;;;;;;5.97;0.70;;;;;;;;;;5263146;28;20024;-70
2023/05/16 04:30:13;;;;;;;7.43;1.23;;;;;;;;;;5263123;28;20531;-70
2023/05/16 04:32:44;;;;;;;8.18;1.05;;;;;;;;;;5263396;28;20029;-69
2023/05/16 04:35:16;;;;;;;9.13;0.63;;;;;;;;;;5263617;28;20021;-70
2023/05/16 04:37:47;;;;;;;4.55;0.88;;;;;;;;;;5262339;28;20021;-70
2023/05/16 04:40:18;;;;;;;7.07;0.68;;;;;;;;;;5263409;28;20044;-69
2023/05/16 04:42:50;;;;;;;6.22;0.90;;;;;;;;;;5262960;28;20388;-69
2023/05/16 04:45:21;;;;;;;6.43;1.13;;;;;;;;;;5262724;28;20112;-69
2023/05/16 04:47:52;;;;;;;7.10;0.63;;;;;;;;;;5262855;28;20025;-70
2023/05/16 04:50:23;;;;;;;5.57;0.93;;;;;;;;;;5263498;28;20426;-70
2023/05/16 04:52:55;;;;;;;6.63;0.60;;;;;;;;;;5261965;28;20017;-69
2023/05/16 04:55:26;;;;;;;4.85;0.75;;;;;;;;;;5263324;28;20033;-70
2023/05/16 04:57:57;;;;;;;10.20;0.85;;;;;;;;;;5261528;28;20048;-69
2023/05/16 05:00:28;;;;;;;7.63;0.70;;;;;;;;;;5263269;28;20024;-69
2023/05/16 05:02:59;;;;;;;4.18;0.63;;;;;;;;;;5262726;28;20025;-70
2023/05/16 05:05:30;;;;;;;4.07;0.50;;;;;;;;;;5262021;28;20259;-70
2023/05/16 05:08:02;;;;;;;5.75;0.60;;;;;;;;;;5262707;28;20460;-70
2023/05/16 05:10:33;;;;;;;4.63;0.52;;;;;;;;;;5262956;28;20143;-70
2023/05/16 05:13:04;;;;;;;7.25;1.10;;;;;;;;;;5261749;28;20021;-69
2023/05/16 05:15:35;;;;;;;7.10;0.70;;;;;;;;;;5262594;28;20166;-70
2023/05/16 05:18:06;;;;;;;7.90;0.93;;;;;;;;;;5262425;28;20491;-70
2023/05/16 05:20:37;;;;;;;4.22;0.50;;;;;;;;;;5261384;28;20392;-69
2023/05/16 05:23:09;;;;;;;4.10;0.50;;;;;;;;;;5263044;28;20049;-70
2023/05/16 05:25:40;;;;;;;5.60;0.60;;;;;;;;;;5262192;28;20071;-70
2023/05/16 05:28:11;;;;;;;6.35;0.85;;;;;;;;;;5261888;28;20021;-69
2023/05/16 05:30:42;;;;;;;6.43;0.88;;;;;;;;;;5261876;28;20021;-69
2023/05/16 05:33:15;;;;;;;8.88;0.70;;;;;;;;;;5261811;28;20360;-69
2023/05/16 05:35:46;;;;;;;9.65;0.68;;;;;;;;;;5261967;28;20095;-69
2023/05/16 05:38:18;;;;;;;7.63;0.68;;;;;;;;;;5262591;28;20163;-69
2023/05/16 05:40:49;;;;;;;7.50;0.70;;;;;;;;;;5260720;28;20055;-69
2023/05/16 05:43:20;;;;;;;9.27;0.82;;;;;;;;;;5262157;28;20013;-70
2023/05/16 05:45:51;;;;;;;6.18;0.80;;;;;;;;;;5261431;28;20021;-69
2023/05/16 05:48:22;;;;;;;7.43;1.88;;;;;;;;;;5261102;28;20017;-70
2023/05/16 05:50:53;;;;;;;6.57;0.60;;;;;;;;;;5261559;28;20476;-70
2023/05/16 05:53:25;;;;;;;10.27;1.15;;;;;;;;;;5262121;28;20035;-69
2023/05/16 05:55:56;;;;;;;7.65;0.65;;;;;;;;;;5260400;28;20577;-69
2023/05/16 05:58:27;;;;;;;5.32;0.55;;;;;;;;;;5261909;28;20542;-69
2023/05/16 06:00:58;;;;;;;9.57;1.05;;;;;;;;;;5261363;28;20119;-69
2023/05/16 06:03:29;;;;;;;8.05;1.10;;;;;;;;;;5261002;28;20028;-69
2023/05/16 06:06:01;;;;;;;7.82;1.00;;;;;;;;;;5261514;28;20021;-69
2023/05/16 06:08:32;;;;;;;9.88;0.60;;;;;;;;;;5260596;28;20017;-69
2023/05/16 06:11:04;;;;;;;6.15;0.68;;;;;;;;;;5261513;28;20043;-69
2023/05/16 06:13:35;;;;;;;8.43;0.77;;;;;;;;;;5261204;28;20025;-69
2023/05/16 06:16:06;;;;;;;6.80;0.80;;;;;;;;;;5260869;28;20017;-69
2023/05/16 06:18:37;;;;;;;6.40;0.60;;;;;;;;;;5281945;28;20023;-69
2023/05/16 06:21:08;;;;;;;5.82;0.65;;;;;;;;;;5282074;28;20082;-69
2023/05/16 06:23:40;;;;;;;7.20;0.60;;;;;;;;;;5280807;28;20024;-68
2023/05/16 06:26:11;;;;;;;9.20;1.15;;;;;;;;;;5282109;28;20046;-69
2023/05/16 06:28:42;;;;;;;9.43;0.60;;;;;;;;;;5281688;28;20444;-69
2023/05/16 06:31:13;;;;;;;8.10;0.50;;;;;;;;;;5281298;28;20107;-69
2023/05/16 06:33:44;;;;;;;5.57;0.55;;;;;;;;;;5281464;28;20255;-69
2023/05/16 06:36:16;;;;;;;10.93;1.33;;;;;;;;;;5282183;28;20383;-69
2023/05/16 06:38:48;;;;;;;4.50;0.50;;;;;;;;;;5280668;28;20043;-69
2023/05/16 06:41:20;;;;;;;6.45;0.90;;;;;;;;;;5281534;28;20028;-69
2023/05/16 06:43:51;;;;;;;8.23;0.45;;;;;;;;;;5280524;28;20343;-69
2023/05/16 06:46:22;;;;;;;7.82;0.98;;;;;;;;;;5282204;28;20048;-70
2023/05/16 06:48:53;;;;;;;3.92;0.50;;;;;;;;;;5281384;28;20020;-69
2023/05/16 06:51:25;;;;;;;6.80;0.70;;;;;;;;;;5281033;28;20024;-69
2023/05/16 06:53:56;;;;;;;6.07;0.70;;;;;;;;;;5281327;28;20013;-69
2023/05/16 06:56:27;;;;;;;5.85;0.50;;;;;;;;;;5281477;28;20028;-69
2023/05/16 06:59:00;;;;;;;5.10;0.80;;;;;;;;;;5279935;28;20036;-69
2023/05/16 07:01:31;;;;;;;8.70;0.60;;;;;;;;;;5281576;28;20039;-69
2023/05/16 07:04:02;;;;;;;6.53;0.63;;;;;;;;;;5281462;28;20029;-68
2023/05/16 07:06:34;;;;;;;6.80;0.63;;;;;;;;;;5280660;28;20116;-68
2023/05/16 07:09:06;;;;;;;7.65;0.45;;;;;;;;;;5281379;28;20388;-68
2023/05/16 07:11:37;;;;;;;7.03;0.52;;;;;;;;;;5280596;28;20024;-68
2023/05/16 07:14:08;;;;;;;4.50;0.50;;;;;;;;;;5281608;28;20024;-68
2023/05/16 07:16:39;;;;;;;3.65;0.45;;;;;;;;;;5281028;28;20024;-68
2023/05/16 07:19:11;;;;;;;5.13;0.55;;;;;;;;;;5280767;28;20082;-68
2023/05/16 07:21:42;;;;;;;5.93;0.45;;;;;;;;;;5281085;28;20115;-68
2023/05/16 07:24:13;;;;;;;7.07;0.55;;;;;;;;;;5281787;28;20024;-68
2023/05/16 07:26:44;;;;;;;4.63;0.30;;;;;;;;;;5280271;28;20321;-68
2023/05/16 07:29:15;;;;;;;5.60;0.77;;;;;;;;;;5281680;28;20016;-68
2023/05/16 07:31:47;;;;;;;6.85;0.55;;;;;;;;;;5280762;28;20017;-68
2023/05/16 07:34:18;;;;;;;3.95;0.32;;;;;;;;;;5281021;28;20024;-68
2023/05/16 07:36:49;;;;;;;5.85;0.40;;;;;;;;;;5280939;28;20024;-68
2023/05/16 07:39:20;;;;;;;4.13;0.35;;;;;;;;;;5281319;28;20097;-68
2023/05/16 07:41:52;;;;;;;6.53;0.73;;;;;;;;;;5279862;28;20123;-68
2023/05/16 07:44:23;;;;;;;4.88;0.47;;;;;;;;;;5280950;28;20494;-67
2023/05/16 07:46:54;;;;;;;3.72;0.32;;;;;;;;;;5280259;28;20895;-68
2023/05/16 07:49:25;;;;;;;7.82;0.43;;;;;;;;;;5281116;28;20092;-67
2023/05/16 07:51:56;;;;;;;5.32;0.63;;;;;;;;;;5282016;28;20017;-68
2023/05/16 07:54:28;;;;;;;3.33;0.30;;;;;;;;;;5284662;28;20032;-69
2023/05/16 07:56:59;;;;;;;3.57;0.30;;;;;;;;;;5284056;28;20271;-69
2023/05/16 07:59:30;;;;;;;3.78;0.30;;;;;;;;;;5284235;28;20328;-69
2023/05/16 08:02:01;;;;;;;2.47;0.30;;;;;;;;;;5283668;28;20111;-69
2023/05/16 08:04:32;;;;;;;6.78;0.40;;;;;;;;;;5284474;28;20048;-69
2023/05/16 08:07:04;;;;;;;3.53;0.40;;;;;;;;;;5284242;28;20371;-68
2023/05/16 08:09:35;;;;;;;3.70;0.30;;;;;;;;;;5283781;28;20024;-69
2023/05/16 08:12:06;;;;;;;3.05;0.40;;;;;;;;;;5284760;28;20036;-69
2023/05/16 08:14:38;;;;;;;4.90;0.40;;;;;;;;;;5284390;28;20195;-69
2023/05/16 08:17:09;;;;;;;3.83;0.40;;;;;;;;;;5284038;28;20142;-69
2023/05/16 08:19:40;;;;;;;5.72;0.57;;;;;;;;;;5284128;28;20029;-69
2023/05/16 08:22:11;;;;;;;6.07;0.40;;;;;;;;;;5283502;28;20151;-69
2023/05/16 08:24:42;;;;;;;3.58;0.40;;;;;;;;;;5282442;28;20476;-69
2023/05/16 08:27:14;;;;;;;2.50;0.40;;;;;;;;;;5282199;28;20031;-67
2023/05/16 08:29:45;;;;;;;4.18;0.40;;;;;;;;;;5281013;28;20266;-68
2023/05/16 08:32:16;;;;;;;3.35;0.32;;;;;;;;;;5282334;28;20048;-68
2023/05/16 08:34:47;;;;;;;4.18;0.30;;;;;;;;;;5279856;28;20267;-68
2023/05/16 08:37:19;;;;;;;3.13;0.40;;;;;;;;;;5281369;28;20431;-68
2023/05/16 08:39:50;;;;;;;3.42;0.20;;;;;;;;;;5282987;28;20459;-67
2023/05/16 08:42:22;;;;;;;4.57;0.28;;;;;;;;;;5284523;28;20478;-69
2023/05/16 08:44:53;;;;;;;2.58;0.30;;;;;;;;;;5282721;28;20023;-68
2023/05/16 08:47:25;;;;;;;3.10;0.30;;;;;;;;;;5284000;28;20036;-68
2023/05/16 08:49:57;;;;;;;2.92;0.30;;;;;;;;;;5269481;28;20020;-70
2023/05/16 08:52:30;;;;;;;3.72;0.30;;;;;;;;;;5274877;28;20039;-69
2023/05/16 08:55:06;;;;;;;3.83;0.50;;;;;;;;;;5283137;28;20095;-70
2023/05/16 08:57:38;;;;;;;3.47;0.40;;;;;;;;;;5281015;28;20543;-69
2023/05/16 09:00:12;;;;;;;2.63;0.40;;;;;;;;;;5283829;28;20035;-69
2023/05/16 09:02:44;;;;;;;3.05;0.30;;;;;;;;;;5281619;28;20474;-69
2023/05/16 09:05:16;;;;;;;3.50;0.40;;;;;;;;;;5282903;28;20024;-69
2023/05/16 09:07:47;;;;;;;3.17;0.40;;;;;;;;;;5283219;28;20028;-69
2023/05/16 09:10:18;;;;;;;4.40;0.47;;;;;;;;;;5282260;28;20017;-69
2023/05/16 09:12:49;;;;;;;2.17;0.40;;;;;;;;;;5280147;28;20047;-69
2023/05/16 09:15:21;;;;;;;4.73;0.47;;;;;;;;;;5281250;28;20392;-69
2023/05/16 09:17:52;;;;;;;2.53;0.30;;;;;;;;;;5280499;28;20383;-69
2023/05/16 09:20:23;;;;;;;3.03;0.60;;;;;;;;;;5280706;28;20299;-68
2023/05/16 09:22:55;;;;;;;3.17;0.40;;;;;;;;;;5280993;28;20274;-68
2023/05/16 09:25:30;;;;;;;4.93;0.40;;;;;;;;;;5280793;28;20263;-68
2023/05/16 09:28:01;;;;;;;2.15;0.30;;;;;;;;;;5281648;28;20017;-68
2023/05/16 09:30:33;;;;;;;3.92;0.40;;;;;;;;;;5281868;28;20017;-68
2023/05/16 09:33:05;;;;;;;2.63;0.40;;;;;;;;;;5282204;28;20028;-68
2023/05/16 09:35:37;;;;;;;2.00;0.30;;;;;;;;;;5282810;28;20020;-68
2023/05/16 09:38:16;;;;;;;2.38;0.30;;;;;;;;;;5283078;28;20025;-67
2023/05/16 09:40:49;;;;;;;2.83;0.30;;;;;;;;;;5281125;28;20119;-68
2023/05/16 09:43:22;;;;;;;3.22;0.40;;;;;;;;;;5282417;28;20095;-67
2023/05/16 09:45:54;;;;;;;4.43;0.40;;;;;;;;;;5282190;28;20025;-67
2023/05/16 09:48:27;;;;;;;4.07;0.50;;;;;;;;;;5282009;28;20012;-67
2023/05/16 09:51:03;;;;;;;2.67;0.30;;;;;;;;;;5282015;28;20043;-68
2023/05/16 09:53:34;;;;;;;3.08;0.40;;;;;;;;;;5281697;28;20028;-67
2023/05/16 09:56:09;;;;;;;4.47;0.47;;;;;;;;;;5282378;28;20075;-68
2023/05/16 09:58:41;;;;;;;2.25;0.40;;;;;;;;;;5281787;28;20144;-68
2023/05/16 10:01:12;;;;;;;4.25;0.30;;;;;;;;;;5281583;28;20364;-68
2023/05/16 10:03:43;;;;;;;3.83;0.40;;;;;;;;;;5281965;28;20025;-68
2023/05/16 10:06:15;;;;;;;3.42;0.30;;;;;;;;;;5282510;28;20332;-68
2023/05/16 10:08:47;;;;;;;1.70;0.20;;;;;;;;;;5281245;28;20024;-68
2023/05/16 10:11:18;;;;;;;4.82;0.40;;;;;;;;;;5282136;28;20044;-68
2023/05/16 10:13:52;;;;;;;2.03;0.20;;;;;;;;;;5281105;28;20024;-68
2023/05/16 10:16:23;;;;;;;2.00;0.30;;;;;;;;;;5281094;28;20120;-67
2023/05/16 10:18:55;;;;;;;2.80;0.40;;;;;;;;;;5281700;28;20095;-68
2023/05/16 10:21:27;;;;;;;1.85;0.20;;;;;;;;;;5280743;28;20035;-68
2023/05/16 10:24:01;;;;;;;2.85;0.30;;;;;;;;;;5281506;28;20407;-68
2023/05/16 10:26:32;;;;;;;2.80;0.85;;;;;;;;;;5281850;28;20020;-68
2023/05/16 10:29:04;;;;;;;2.03;0.35;;;;;;;;;;5280419;28;20033;-69
2023/05/16 10:31:36;;;;;;;2.67;0.40;;;;;;;;;;5281691;28;20024;-68
2023/05/16 10:34:07;;;;;;;4.40;0.57;;;;;;;;;;5281803;28;20017;-68
2023/05/16 10:36:39;;;;;;;5.97;0.43;;;;;;;;;;5280057;28;20083;-68
2023/05/16 10:39:11;;;;;;;3.90;0.40;;;;;;;;;;5281497;28;20460;-69
2023/05/16 10:41:42;;;;;;;1.75;0.30;;;;;;;;;;5280794;28;20032;-68
2023/05/16 10:44:15;;;;;;;2.92;0.40;;;;;;;;;;5281091;28;20506;-68
2023/05/16 10:46:46;;;;;;;3.63;0.40;;;;;;;;;;5281148;28;20020;-68
2023/05/16 10:49:19;;;;;;;3.03;0.30;;;;;;;;;;5281696;28;20027;-67
2023/05/16 10:52:04;;;;;;;2.15;0.32;;;;;;;;;;5280786;28;20032;-67
2023/05/16 10:54:36;;;;;;;1.40;0.25;;;;;;;;;;5280773;28;20032;-68
2023/05/16 10:57:08;;;;;;;3.50;0.38;;;;;;;;;;5279281;28;20094;-69
2023/05/16 10:59:41;;;;;;;2.58;0.30;;;;;;;;;;5281228;28;20063;-68
2023/05/16 11:02:27;;;;;;;3.67;0.30;;;;;;;;;;5281604;28;20032;-69
2023/05/16 11:05:00;;;;;;;2.95;0.30;;;;;;;;;;5280537;28;20064;-69
2023/05/16 11:07:33;;;;;;;3.90;0.30;;;;;;;;;;5281297;28;20016;-68
2023/05/16 11:10:05;;;;;;;3.13;0.40;;;;;;;;;;5281208;28;20025;-68
2023/05/16 11:12:44;;;;;;;4.45;0.30;;;;;;;;;;5280403;28;20024;-68
2023/05/16 11:15:19;;;;;;;3.85;0.40;;;;;;;;;;5278936;28;20017;-68
2023/05/16 11:18:02;;;;;;;4.25;0.50;;;;;;;;;;5280235;28;20024;-68
2023/05/16 11:20:34;;;;;;;1.73;0.30;;;;;;;;;;5280582;28;20021;-68
2023/05/16 11:23:21;;;;;;;5.25;0.45;;;;;;;;;;5280715;28;20114;-67
2023/05/16 11:25:54;;;;;;;4.82;0.30;;;;;;;;;;5280976;28;20376;-67
2023/05/16 11:28:25;;;;;;;7.28;0.50;;;;;;;;;;5284693;28;20127;-67
2023/05/16 11:30:58;;;;;;;5.25;0.40;;;;;;;;;;5283450;28;20645;-67
2023/05/16 11:33:33;;;;;;;4.25;0.30;;;;;;;;;;5282708;28;20029;-68
2023/05/16 11:36:05;;;;;;;2.30;0.38;;;;;;;;;;5282121;28;20109;-69
2023/05/16 11:38:37;;;;;;;3.05;0.40;;;;;;;;;;5285081;28;20375;-68
2023/05/16 11:41:09;;;;;;;3.97;0.40;;;;;;;;;;5284223;28;20025;-69
2023/05/16 11:43:41;;;;;;;2.83;0.30;;;;;;;;;;5284567;28;20024;-71
2023/05/16 11:46:13;;;;;;;3.95;0.60;;;;;;;;;;5284446;28;20020;-68
2023/05/16 11:48:46;;;;;;;4.05;0.40;;;;;;;;;;5284605;28;20375;-68
2023/05/16 11:51:17;;;;;;;2.88;0.30;;;;;;;;;;5284980;28;20024;-68
2023/05/16 11:53:49;;;;;;;4.57;0.30;;;;;;;;;;5274007;28;20495;-68
2023/05/16 11:56:22;;;;;;;4.07;0.30;;;;;;;;;;5283346;28;20535;-68
2023/05/16 11:58:53;;;;;;;3.72;0.40;;;;;;;;;;5280174;28;20047;-68
2023/05/16 12:01:24;;;;;;;4.07;0.40;;;;;;;;;;5280900;28;20025;-68
2023/05/16 12:03:58;;;;;;;2.42;0.50;;;;;;;;;;5281136;28;20451;-68
2023/05/16 12:06:31;;;;;;;2.65;0.20;;;;;;;;;;5280946;28;20056;-68
2023/05/16 12:09:11;;;;;;;2.40;0.28;;;;;;;;;;5282120;28;20016;-69
2023/05/16 12:11:43;;;;;;;5.03;0.40;;;;;;;;;;5280732;28;20029;-69
2023/05/16 12:14:14;;;;;;;3.95;0.40;;;;;;;;;;5282712;28;20492;-69
2023/05/16 12:16:47;;;;;;;3.67;0.40;;;;;;;;;;5282718;28;20074;-68
2023/05/16 12:19:19;;;;;;;3.03;0.35;;;;;;;;;;5283679;28;20095;-68
2023/05/16 12:21:51;;;;;;;2.70;0.50;;;;;;;;;;5282244;28;20124;-68
2023/05/16 12:24:28;;;;;;;4.88;0.30;;;;;;;;;;5283089;28;20021;-68
2023/05/16 12:26:59;;;;;;;6.28;0.30;;;;;;;;;;5283003;28;20040;-68
2023/05/16 12:29:30;;;;;;;5.03;0.50;;;;;;;;;;5282530;28;20016;-68
2023/05/16 12:32:02;;;;;;;4.47;0.40;;;;;;;;;;5283311;28;20278;-68
2023/05/16 12:34:33;;;;;;;6.85;0.70;;;;;;;;;;5282675;28;20330;-68
2023/05/16 12:37:05;;;;;;;4.82;0.50;;;;;;;;;;5281107;28;20194;-68
2023/05/16 12:39:37;;;;;;;4.43;0.60;;;;;;;;;;5283056;28;20044;-68
2023/05/16 12:42:10;;;;;;;3.67;0.35;;;;;;;;;;5282085;28;20445;-68
2023/05/16 12:44:44;;;;;;;3.33;0.30;;;;;;;;;;5283314;28;20020;-68
2023/05/16 12:47:16;;;;;;;2.90;0.50;;;;;;;;;;5282887;28;20113;-68
2023/05/16 12:49:47;;;;;;;1.83;0.30;;;;;;;;;;5282209;28;20032;-68
2023/05/16 12:52:19;;;;;;;2.13;0.30;;;;;;;;;;5282481;28;20012;-68
2023/05/16 12:54:51;;;;;;;1.40;0.30;;;;;;;;;;5282138;28;20063;-68
2023/05/16 12:57:22;;;;;;;2.25;0.35;;;;;;;;;;5282314;28;20487;-68
2023/05/16 12:59:53;;;;;;;2.90;0.30;;;;;;;;;;5282754;28;20063;-68
2023/05/16 13:02:24;;;;;;;2.58;0.30;;;;;;;;;;5283854;28;20298;-68
2023/05/16 13:04:56;;;;;;;2.35;0.40;;;;;;;;;;5281847;28;20273;-68
2023/05/16 13:07:27;;;;;;;1.85;0.30;;;;;;;;;;5283407;28;20100;-69
2023/05/16 13:09:58;;;;;;;4.25;0.40;;;;;;;;;;5282753;28;20467;-68
2023/05/16 13:12:29;;;;;;;2.83;0.40;;;;;;;;;;5282508;28;20044;-69
2023/05/16 13:15:01;;;;;;;5.28;0.50;;;;;;;;;;5283260;28;20277;-68
2023/05/16 13:17:33;;;;;;;2.15;0.30;;;;;;;;;;5282211;28;20054;-69
2023/05/16 13:20:08;;;;;;;7.78;1.20;;;;;;;;;;5282558;28;20460;-68
2023/05/16 13:22:39;;;;;;;2.08;0.35;;;;;;;;;;5282692;28;20104;-67
2023/05/16 13:25:11;;;;;;;3.35;0.25;;;;;;;;;;5282289;28;20099;-68
2023/05/16 13:27:42;;;;;;;4.22;0.40;;;;;;;;;;5282291;28;20016;-69
2023/05/16 13:30:14;;;;;;;2.88;0.30;;;;;;;;;;5283216;28;20447;-68
2023/05/16 13:32:45;;;;;;;2.65;0.38;;;;;;;;;;5281909;28;20124;-68
2023/05/16 13:35:17;;;;;;;2.67;0.32;;;;;;;;;;5283318;28;20020;-68
2023/05/16 13:37:48;;;;;;;2.63;0.60;;;;;;;;;;5282374;28;20289;-70
2023/05/16 13:40:19;;;;;;;2.73;0.40;;;;;;;;;;5282341;28;20025;-67
2023/05/16 13:42:50;;;;;;;1.88;0.30;;;;;;;;;;5281833;28;20287;-67
2023/05/16 13:45:21;;;;;;;4.40;0.32;;;;;;;;;;5282454;28;20035;-68
2023/05/16 13:47:52;;;;;;;4.18;0.40;;;;;;;;;;5281727;28;20020;-68
2023/05/16 13:50:24;;;;;;;5.70;0.50;;;;;;;;;;5279112;28;20029;-69
2023/05/16 13:52:55;;;;;;;4.50;0.50;;;;;;;;;;5279934;28;20016;-69
2023/05/16 13:55:26;;;;;;;5.38;0.40;;;;;;;;;;5282367;28;20074;-68
2023/05/16 13:57:58;;;;;;;3.42;0.32;;;;;;;;;;5281963;28;20044;-69
2023/05/16 14:00:30;;;;;;;5.72;0.40;;;;;;;;;;5281431;28;20020;-68
2023/05/16 14:03:01;;;;;;;1.73;0.22;;;;;;;;;;5282118;28;20027;-68
2023/05/16 14:05:32;;;;;;;2.67;0.37;;;;;;;;;;5282358;28;20013;-68
2023/05/16 14:08:03;;;;;;;4.00;0.40;;;;;;;;;;5281347;28;20270;-68
2023/05/16 14:10:34;;;;;;;3.28;0.32;;;;;;;;;;5282042;28;20034;-70
2023/05/16 14:13:06;;;;;;;1.95;0.40;;;;;;;;;;5281762;28;20100;-68
2023/05/16 14:15:37;;;;;;;2.08;0.22;;;;;;;;;;5281214;28;20371;-68
2023/05/16 14:18:08;;;;;;;2.63;0.50;;;;;;;;;;5281559;28;20012;-68
2023/05/16 14:20:39;;;;;;;3.83;0.35;;;;;;;;;;5272008;28;20047;-69
2023/05/16 14:23:10;;;;;;;3.73;0.50;;;;;;;;;;5271666;28;20125;-68
2023/05/16 14:25:42;;;;;;;3.23;0.37;;;;;;;;;;5281287;28;20259;-69
2023/05/16 14:28:13;;;;;;;2.10;0.30;;;;;;;;;;5261649;28;20344;-68
2023/05/16 14:30:44;;;;;;;3.13;0.30;;;;;;;;;;5280667;28;20358;-69
2023/05/16 14:33:15;;;;;;;1.65;0.30;;;;;;;;;;5281526;28;20267;-70
2023/05/16 14:35:48;;;;;;;1.77;0.23;;;;;;;;;;5280273;28;20017;-68
2023/05/16 14:38:20;;;;;;;3.25;0.43;;;;;;;;;;5279809;28;20259;-68
2023/05/16 14:40:51;;;;;;;2.42;0.20;;;;;;;;;;5280292;28;20039;-68
2023/05/16 14:43:22;;;;;;;1.70;0.15;;;;;;;;;;5281012;28;20488;-68
2023/05/16 14:45:53;;;;;;;3.08;0.40;;;;;;;;;;5279737;28;20055;-69
2023/05/16 14:48:25;;;;;;;1.87;0.30;;;;;;;;;;5279987;28;20025;-68
2023/05/16 14:50:56;;;;;;;2.80;0.40;;;;;;;;;;5280370;28;20742;-68
2023/05/16 14:53:27;;;;;;;2.23;0.10;;;;;;;;;;5280301;28;20028;-68
2023/05/16 14:55:59;;;;;;;2.22;0.32;;;;;;;;;;5280060;28;20306;-69
2023/05/16 14:58:30;;;;;;;2.75;0.30;;;;;;;;;;5280845;28;20082;-70
2023/05/16 15:01:01;;;;;;;4.68;0.30;;;;;;;;;;5279900;28;20167;-68
2023/05/16 15:03:33;;;;;;;3.22;0.22;;;;;;;;;;5279883;28;20020;-69
2023/05/16 15:06:06;;;;;;;4.28;0.30;;;;;;;;;;5280599;28;20383;-68
2023/05/16 15:08:37;;;;;;;1.88;0.20;;;;;;;;;;5279960;28;20099;-68